createdAt,value
2018-09-25T00:02:54.323Z,103216.69
2018-09-25T00:07:54.402Z,103212.78
2018-09-25T00:12:54.160Z,103213.25
2018-09-25T00:17:54.051Z,103219.87
2018-09-25T00:22:53.824Z,103226.05
2018-09-25T00:27:53.539Z,103230.91
2018-09-25T00:32:53.280Z,103232.25
2018-09-25T00:37:53.123Z,103235.34
2018-09-25T00:42:52.874Z,103235.78
2018-09-25T00:47:52.482Z,103236.26
2018-09-25T00:52:52.422Z,103225.73
2018-09-25T00:57:52.238Z,103227.92
2018-09-25T01:02:51.872Z,103237.58
2018-09-25T01:07:51.703Z,103235.82
2018-09-25T01:12:51.404Z,103237.58
2018-09-25T01:17:51.089Z,103234.97
2018-09-25T01:22:50.957Z,103242.88
2018-09-25T01:27:50.663Z,103245.06
2018-09-25T01:32:50.482Z,103244.66
2018-09-25T01:37:50.536Z,103246.41
2018-09-25T01:42:50.281Z,103247.30
2018-09-25T01:47:50.159Z,103251.68
2018-09-25T01:52:50.061Z,103261.78
2018-09-25T01:57:49.867Z,103269.22
2018-09-25T02:02:49.506Z,103267.06
2018-09-25T02:07:49.152Z,103269.23
2018-09-25T02:12:48.784Z,103270.13
2018-09-25T02:17:48.514Z,103270.55
2018-09-25T02:22:48.193Z,103273.61
2018-09-25T02:27:47.798Z,103276.70
2018-09-25T02:32:47.837Z,103267.50
2018-09-25T02:37:47.849Z,103270.98
2018-09-25T02:42:47.515Z,103274.50
2018-09-25T02:47:47.373Z,103268.78
2018-09-25T02:52:47.550Z,103261.35
2018-09-25T02:57:49.317Z,103266.15
2018-09-25T03:02:54.816Z,103266.14
2018-09-25T03:07:54.466Z,103262.20
2018-09-25T03:12:54.575Z,103256.94
2018-09-25T03:17:54.472Z,103255.20
2018-09-25T03:22:54.195Z,103244.22
2018-09-25T03:27:53.926Z,103247.31
2018-09-25T03:32:53.650Z,103238.97
2018-09-25T03:37:53.385Z,103242.48
2018-09-25T03:42:53.400Z,103254.31
2018-09-25T03:47:53.018Z,103256.52
2018-09-25T03:52:52.651Z,103256.52
2018-09-25T03:57:52.358Z,103256.94
2018-09-25T04:02:52.382Z,103264.36
2018-09-25T04:07:52.095Z,103269.61
2018-09-25T04:12:51.822Z,103276.59
2018-09-25T04:17:51.507Z,103268.27
2018-09-25T04:22:51.715Z,103266.06
2018-09-25T04:27:51.507Z,103267.37
2018-09-25T04:32:51.191Z,103271.30
2018-09-25T04:37:51.012Z,103261.67
2018-09-25T04:42:50.725Z,103268.66
2018-09-25T04:47:50.408Z,103284.84
2018-09-25T04:52:50.218Z,103291.43
2018-09-25T04:57:49.920Z,103294.52
2018-09-25T05:02:49.582Z,103290.56
2018-09-25T05:07:49.405Z,103292.73
2018-09-25T05:12:49.145Z,103299.75
2018-09-25T05:17:48.850Z,103306.73
2018-09-25T05:22:48.600Z,103311.58
2018-09-25T05:27:48.312Z,103309.84
2018-09-25T05:32:48.232Z,103316.47
2018-09-25T05:37:48.038Z,103319.97
2018-09-25T05:42:47.720Z,103321.34
2018-09-25T05:47:47.530Z,103331.89
2018-09-25T05:52:47.190Z,103338.94
2018-09-25T05:57:47.154Z,103334.11
2018-09-25T06:02:46.795Z,103334.15
2018-09-25T06:07:46.414Z,103324.05
2018-09-25T06:12:46.248Z,103331.95
2018-09-25T06:17:46.280Z,103337.64
2018-09-25T06:22:46.023Z,103355.14
2018-09-25T06:27:46.179Z,103356.85
2018-09-25T06:32:46.058Z,103357.22
2018-09-25T06:37:46.160Z,103357.10
2018-09-25T06:42:45.927Z,103369.29
2018-09-25T06:47:45.759Z,103359.02
2018-09-25T06:52:45.501Z,103368.97
2018-09-25T06:57:45.135Z,103361.95
2018-09-25T07:02:44.929Z,103359.91
2018-09-25T07:07:44.518Z,103359.59
2018-09-25T07:12:44.454Z,103371.38
2018-09-25T07:17:44.228Z,103382.13
2018-09-25T07:22:44.027Z,103389.83
2018-09-25T07:27:43.907Z,103391.25
2018-09-25T07:32:43.796Z,103396.12
2018-09-25T07:37:43.687Z,103395.46
2018-09-25T07:42:43.725Z,103409.27
2018-09-25T07:47:43.657Z,103401.00
2018-09-25T07:52:43.518Z,103404.47
2018-09-25T07:57:43.609Z,103410.95
2018-09-25T08:02:44.360Z,103416.95
2018-09-25T08:07:44.730Z,103413.97
2018-09-25T08:12:44.614Z,103421.85
2018-09-25T08:17:44.599Z,103420.98
2018-09-25T08:22:44.510Z,103420.53
2018-09-25T08:27:44.429Z,103427.02
2018-09-25T08:32:44.368Z,103430.09
2018-09-25T08:37:44.239Z,103432.52
2018-09-25T08:42:44.320Z,103433.40
2018-09-25T08:47:44.230Z,103438.00
2018-09-25T08:52:44.141Z,103439.22
2018-09-25T08:57:44.142Z,103442.12
2018-09-25T09:02:44.025Z,103447.91
2018-09-25T09:07:44.165Z,103450.73
2018-09-25T09:12:44.207Z,103450.45
2018-09-25T09:17:44.103Z,103439.20
2018-09-25T09:22:44.130Z,103438.48
2018-09-25T09:27:44.052Z,103442.04
2018-09-25T09:32:43.984Z,103443.35
2018-09-25T09:37:44.184Z,103434.27
2018-09-25T09:42:44.115Z,103427.38
2018-09-25T09:47:44.033Z,103419.46
2018-09-25T09:52:44.025Z,103412.25
2018-09-25T09:57:43.946Z,103405.09
2018-09-25T10:02:44.081Z,103411.34
2018-09-25T10:07:43.734Z,103417.72
2018-09-25T10:12:43.846Z,103411.33
2018-09-25T10:17:43.511Z,103409.80
2018-09-25T10:22:43.407Z,103416.07
2018-09-25T10:27:42.995Z,103419.59
2018-09-25T10:32:42.686Z,103425.19
2018-09-25T10:37:42.333Z,103420.50
2018-09-25T10:42:41.962Z,103415.17
2018-09-25T10:47:41.768Z,103404.55
2018-09-25T10:52:41.578Z,103408.83
2018-09-25T10:57:41.317Z,103409.91
2018-09-25T11:02:41.039Z,103410.66
2018-09-25T11:07:41.110Z,103416.25
2018-09-25T11:12:40.896Z,103411.28
2018-09-25T11:17:40.611Z,103419.24
2018-09-25T11:22:40.598Z,103417.05
2018-09-25T11:27:40.399Z,103409.77
2018-09-25T11:32:40.218Z,103415.00
2018-09-25T11:37:39.885Z,103416.34
2018-09-25T11:42:39.759Z,103401.44
2018-09-25T11:47:39.332Z,103395.31
2018-09-25T11:52:39.038Z,103382.78
2018-09-25T11:57:38.904Z,103388.75
2018-09-25T12:02:38.586Z,103372.14
2018-09-25T12:07:38.195Z,103362.91
2018-09-25T12:12:37.961Z,103380.14
2018-09-25T12:17:37.797Z,103370.61
2018-09-25T12:22:37.808Z,103360.27
2018-09-25T12:27:37.556Z,103353.92
2018-09-25T12:32:37.472Z,103353.69
2018-09-25T12:37:37.288Z,103342.28
2018-09-25T12:42:37.349Z,103351.09
2018-09-25T12:47:37.080Z,103345.70
2018-09-25T12:52:36.855Z,103335.94
2018-09-25T12:57:36.674Z,103327.70
2018-09-25T13:02:36.472Z,103321.94
2018-09-25T13:07:36.246Z,103317.17
2018-09-25T13:12:35.909Z,103316.36
2018-09-25T13:17:35.762Z,103312.64
2018-09-25T13:22:35.487Z,103301.94
2018-09-25T13:27:35.227Z,103288.15
2018-09-25T13:32:35.135Z,103281.92
2018-09-25T13:37:34.795Z,103282.56
2018-09-25T13:42:34.747Z,103269.03
2018-09-25T13:47:34.645Z,103260.59
2018-09-25T13:52:34.322Z,103255.88
2018-09-25T13:57:34.558Z,103238.88
2018-09-25T14:02:34.389Z,103234.90
2018-09-25T14:07:34.046Z,103224.76
2018-09-25T14:12:33.776Z,103226.64
2018-09-25T14:17:33.696Z,103218.73
2018-09-25T14:22:33.450Z,103220.31
2018-09-25T14:27:33.321Z,103214.52
2018-09-25T14:32:33.010Z,103214.12
2018-09-25T14:37:33.544Z,103213.54
2018-09-25T14:42:33.049Z,103205.70
2018-09-25T14:47:34.194Z,103200.38
2018-09-25T14:52:34.104Z,103206.96
2018-09-25T14:57:33.954Z,103209.97
2018-09-25T15:02:33.647Z,103187.52
2018-09-25T15:07:33.928Z,103178.81
2018-09-25T15:12:37.801Z,103176.46
2018-09-25T15:17:37.619Z,103180.59
2018-09-25T15:22:37.543Z,103169.86
2018-09-25T15:27:37.400Z,103163.50
2018-09-25T15:32:37.388Z,103164.27
2018-09-25T15:37:37.560Z,103162.36
2018-09-25T15:42:37.280Z,103157.06
2018-09-25T15:47:37.304Z,103159.67
2018-09-25T15:52:37.120Z,103159.64
2018-09-25T15:57:36.845Z,103161.75
2018-09-25T16:02:36.488Z,103160.28
2018-09-25T16:07:36.595Z,103153.91
2018-09-25T16:12:36.400Z,103150.65
2018-09-25T16:17:36.241Z,103147.70
2018-09-25T16:22:36.358Z,103143.94
2018-09-25T16:27:36.053Z,103144.56
2018-09-25T16:32:36.403Z,103156.23
2018-09-25T16:37:36.250Z,103152.47
2018-09-25T16:42:36.044Z,103158.48
2018-09-25T16:47:36.962Z,103156.20
2018-09-25T16:52:36.748Z,103159.42
2018-09-25T16:57:36.393Z,103160.23
2018-09-25T17:02:36.481Z,103165.16
2018-09-25T17:07:36.532Z,103166.18
2018-09-25T17:12:37.025Z,103166.40
2018-09-25T17:17:36.793Z,103164.25
2018-09-25T17:22:36.489Z,103164.45
2018-09-25T17:27:36.441Z,103165.91
2018-09-25T17:32:36.050Z,103174.47
2018-09-25T17:37:36.374Z,103175.86
2018-09-25T17:42:36.052Z,103184.84
2018-09-25T17:47:36.313Z,103182.83
2018-09-25T17:52:36.001Z,103189.69
2018-09-25T17:57:35.731Z,103193.81
2018-09-25T18:02:35.620Z,103190.80
2018-09-25T18:07:35.407Z,103203.63
2018-09-25T18:12:35.066Z,103208.91
2018-09-25T18:17:34.879Z,103205.70
2018-09-25T18:22:34.659Z,103193.19
2018-09-25T18:27:34.577Z,103201.83
2018-09-25T18:32:34.227Z,103203.38
2018-09-25T18:37:34.092Z,103207.56
2018-09-25T18:42:33.757Z,103209.53
2018-09-25T18:47:33.439Z,103214.56
2018-09-25T18:52:33.678Z,103215.64
2018-09-25T18:57:33.615Z,103226.77
2018-09-25T19:02:33.342Z,103232.64
2018-09-25T19:07:33.068Z,103229.71
2018-09-25T19:12:32.783Z,103230.72
2018-09-25T19:17:32.831Z,103231.73
2018-09-25T19:22:33.730Z,103224.34
2018-09-25T19:27:33.484Z,103215.63
2018-09-25T19:32:33.331Z,103225.42
2018-09-25T19:37:33.269Z,103227.25
2018-09-25T19:42:33.089Z,103226.91
2018-09-25T19:47:32.801Z,103223.42
2018-09-25T19:52:32.423Z,103231.00
2018-09-25T19:57:32.278Z,103218.73
2018-09-25T20:02:32.102Z,103230.73
2018-09-25T20:07:32.319Z,103225.95
2018-09-25T20:12:32.221Z,103223.97
2018-09-25T20:17:32.010Z,103219.95
2018-09-25T20:22:31.633Z,103216.47
2018-09-25T20:27:31.431Z,103203.28
2018-09-25T20:32:31.146Z,103198.02
2018-09-25T20:37:30.925Z,103186.53
2018-09-25T20:42:30.854Z,103189.91
2018-09-25T20:47:30.950Z,103203.44
2018-09-25T20:52:31.171Z,103214.52
2018-09-25T20:57:39.085Z,103222.08
2018-09-25T21:02:39.009Z,103212.86
2018-09-25T21:07:38.817Z,103186.89
2018-09-25T21:12:38.562Z,103180.20
2018-09-25T21:17:38.342Z,103182.83
2018-09-25T21:22:38.182Z,103176.23
2018-09-25T21:27:37.806Z,103157.30
2018-09-25T21:32:37.496Z,103138.81
2018-09-25T21:37:38.410Z,103136.64
2018-09-25T21:42:38.237Z,103145.48
2018-09-25T21:47:37.951Z,103168.03
2018-09-25T21:52:37.908Z,103179.13
2018-09-25T21:57:37.600Z,103175.73
2018-09-25T22:02:37.584Z,103181.98
2018-09-25T22:07:37.473Z,103166.14
2018-09-25T22:12:37.167Z,103152.52
2018-09-25T22:17:36.860Z,103123.49
2018-09-25T22:22:36.867Z,103127.97
2018-09-25T22:27:36.742Z,103132.39
2018-09-25T22:32:36.584Z,103116.15
2018-09-25T22:37:36.392Z,103104.70
2018-09-25T22:42:36.444Z,103103.85
2018-09-25T22:47:36.108Z,103112.73
2018-09-25T22:52:36.018Z,103114.10
2018-09-25T22:57:35.815Z,103112.86
2018-09-25T23:02:35.601Z,103106.76
2018-09-25T23:07:35.275Z,103103.71
2018-09-25T23:12:34.886Z,103106.03
2018-09-25T23:17:34.638Z,103102.13
2018-09-25T23:22:34.292Z,103088.92
2018-09-25T23:27:34.119Z,103082.39
2018-09-25T23:32:33.794Z,103071.00
2018-09-25T23:37:33.460Z,103071.06
2018-09-25T23:42:33.769Z,103065.84
2018-09-25T23:47:48.789Z,103049.16
2018-09-25T23:52:49.208Z,103051.39
2018-09-25T23:57:47.787Z,103055.43
